Nearby METAR Reports

 

KMQS - Coatesville, Pennsylvania, USA
Distance from station: ENE 6mi, 10km
Updated: Sun, 26-May-2019 11:15am EDT
Few Clouds
Few Clouds
 Wind from NW
Wind: NW 10 mph , 17 km/h
Temperature: 77°F , 25°C
Dew Point: 68°F , 20°C
Humidity: 74%
Barometer: 30.03 inHg , 1016.9 hPa
Clouds: Few Clouds
Visibility: 10 miles , 16 km
Cloud details: Few Clouds 2100 ft
2019/05/26 15:15 KMQS 261515Z AUTO 31009KT 280V340 10SM FEW021 25/20 A3003 RMK AO2
KLNS - Lancaster, Pennsylvania, USA
Distance from station: NW 21mi, 33km
Updated: Sun, 26-May-2019 10:53am EDT
Clear
Clear
 Wind from WNW
Wind: WNW 10 mph , 17 km/h
Temperature: 82°F , 28°C
Heat Index: 86°F , 30°C
Dew Point: 70°F , 21°C
Humidity: 66%
Barometer: 30.00 inHg , 1015.9 hPa
Clouds: Clear
Visibility: 10 miles , 16 km
2019/05/26 14:53 KLNS 261453Z 30009KT 10SM CLR 28/21 A3000 RMK AO2 SLP156 T02780206 58001
 
KILG - Wilmington, Delaware, USA
Distance from station: SE 28mi, 45km
Updated: Sun, 26-May-2019 10:51am EDT
Clear
Clear
 Wind from NW
Wind: NW 13 mph , 20 km/h
Temperature: 82°F , 28°C
Heat Index: 85°F , 29°C
Dew Point: 68°F , 20°C
Humidity: 62%
Barometer: 30.00 inHg , 1015.9 hPa
Clouds: Clear
Visibility: 10 miles , 16 km
2019/05/26 14:51 KILG 261451Z 31011KT 10SM CLR 28/20 A3000 RMK AO2 SLP160 T02780200 50002
KRDG - Reading, Pennsylvania, USA
Distance from station: N 29mi, 47km
Updated: Sun, 26-May-2019 10:54am EDT
Few Clouds
Few Clouds
 Wind from NW
Wind: NW 9 mph , 15 km/h, Gust: 17 mph , 28 km/h
Temperature: 81°F , 27°C
Heat Index: 83°F , 28°C
Dew Point: 66°F , 19°C
Humidity: 62%
Barometer: 29.99 inHg , 1015.6 hPa
Clouds: Few Clouds
Visibility: 10 miles , 16 km
Cloud details: Few Clouds 2800 ft
2019/05/26 14:54 KRDG 261454Z 31008G15KT 10SM FEW028 27/19 A2999 RMK AO2 SLP159 T02670194 $
 
KPTW - Pottstown, Pennsylvania, USA
Distance from station: NE 30mi, 48km
Updated: Sun, 26-May-2019 10:54am EDT

 Wind from WNW
Wind: WNW 8 mph , 13 km/h
Temperature: 79°F , 26°C
Dew Point: 63°F , 17°C
Humidity: 58%
Barometer: 30.01 inHg , 1016.3 hPa
Visibility: 9 miles , 14 km
2019/05/26 14:54 KPTW 261454Z AUTO 30007KT 9SM 26/17 A3001 RMK AO2 SLP159 T02560172 51001 $